Darstellungsparameter: Aktuell verwendete Einstellungen:
Skalierung der Graphiken ... ?
xyx+y,   Skalierungsfaktor:      Skalierung: Modus: x, Faktor: 1
Darstellungszeitraum ... ?
Vom - - bis: - -   Zeitraum: 11.11.2018 - 12.11.2018
Min/Max/Avg-Anzeige ... ?
Zeige MMA aktuell
Zeige MMA Monat
Zeige MMA alles
Zeige --A aktuell
Zeige --A Monat
Zeige --A alles
Keine MMA-Anzeige
MMA:
Average (ber die Originaldaten)
MMA-Basis: 17.04.2019 - 19.05.2019
Quicknavigation für Darstellung... ?
Tage:      1T, 2T, 3T, 5T -1T -2T -3T -5T +1T +2T +3T +5T
Wochen: 1W, 2W, 3W -1W -2W -3W +1W +2W +3W
Monate: 1M, 3M, 6M -1M -3M -6M +1M +3M +6M
Jahre:    1J, 3J, 5J, 10J -1J -3J -5J -10J +1J +3J +5J +10J
Nutze für die Darstellung ... ?
Originaldaten oder Mittelwerte auf ...
Stundenbasis Tagesbasis Wochenbasis
Monatsbasis Jahresbasis      Datenbasis: Original-Daten
Darstellen als:
Statistik (Auto) Statistik J:M      Darstellung:
Zur Graphik,    zurück zur Übersicht aller Sensoren.
 
Tabellarische Datenbersicht: ?
 
Sensor: Nr:Datum:Temp:Abs-Feuchte:Windchill:Wind:
Aussen-T/F 1 11-11-2018 00:00:00 11.6 C 9.98 g/m*3 11.6 C 0 km/h
2 11-11-2018 00:05:00 11.6 C 9.98 g/m*3 11.6 C 1.6 km/h
3 11-11-2018 00:10:00 11.6 C 9.98 g/m*3 11.6 C 0 km/h
4 11-11-2018 00:15:00 11.6 C 9.98 g/m*3 11.6 C 0 km/h
5 11-11-2018 00:20:00 11.5 C 9.92 g/m*3 11.5 C 1.6 km/h
6 11-11-2018 00:25:00 11.4 C 9.96 g/m*3 11.4 C 1.6 km/h
7 11-11-2018 00:30:00 11.4 C 9.96 g/m*3 11.4 C 0 km/h
8 11-11-2018 00:35:00 11.3 C 9.89 g/m*3 11.3 C 3.2 km/h
9 11-11-2018 00:40:00 11.3 C 9.89 g/m*3 11.3 C 3.2 km/h
10 11-11-2018 00:45:00 11.3 C 9.79 g/m*3 11.3 C 1.6 km/h
11 11-11-2018 00:50:00 11.2 C 9.83 g/m*3 11.2 C 0 km/h
12 11-11-2018 00:55:00 11.2 C 9.83 g/m*3 11.2 C 0 km/h
13 11-11-2018 01:00:00 11.1 C 9.77 g/m*3 11.1 C 0 km/h
14 11-11-2018 01:05:00 11.1 C 9.77 g/m*3 11.1 C 0 km/h
15 11-11-2018 01:10:00 10.9 C 9.55 g/m*3 10.9 C 0 km/h
16 11-11-2018 01:15:00 10.8 C 9.49 g/m*3 10.8 C 0 km/h
17 11-11-2018 01:20:00 10.6 C 9.37 g/m*3 10.6 C 0 km/h
18 11-11-2018 01:25:00 10.4 C 9.25 g/m*3 10.4 C 0 km/h
19 11-11-2018 01:30:00 10.3 C 9.19 g/m*3 10.3 C 0 km/h
20 11-11-2018 01:35:00 10.2 C 9.14 g/m*3 10.2 C 0 km/h
21 11-11-2018 01:40:00 10.1 C 9.08 g/m*3 10.1 C 0 km/h
22 11-11-2018 01:45:00 10.1 C 9.08 g/m*3 10.1 C 0 km/h
23 11-11-2018 01:50:00 10.2 C 9.23 g/m*3 10.2 C 0 km/h
24 11-11-2018 01:55:00 10.3 C 9.29 g/m*3 10.3 C 0 km/h
25 11-11-2018 02:00:00 10.4 C 9.35 g/m*3 10.4 C 0 km/h
Sensor: Nr:Datum:Temp:Abs-Feuchte:Windchill:Wind:
Aussen-T/F 26 11-11-2018 02:05:00 10.5 C 9.41 g/m*3 10.5 C 0 km/h
27 11-11-2018 02:10:00 10.6 C 9.47 g/m*3 10.6 C 0 km/h
28 11-11-2018 02:15:00 10.6 C 9.47 g/m*3 10.6 C 0 km/h
29 11-11-2018 02:20:00 10.5 C 9.41 g/m*3 10.5 C 0 km/h
30 11-11-2018 02:25:00 10.4 C 9.35 g/m*3 10.4 C 0 km/h
31 11-11-2018 02:30:00 10.4 C 9.35 g/m*3 10.4 C 0 km/h
32 11-11-2018 02:35:00 10.2 C 9.23 g/m*3 10.2 C 0 km/h
33 11-11-2018 02:40:00 9.9 C 9.06 g/m*3 9.9 C 0 km/h
34 11-11-2018 02:45:00 9.7 C 8.85 g/m*3 9.7 C 0 km/h
35 11-11-2018 02:50:00 9.6 C 8.79 g/m*3 9.6 C 0 km/h
36 11-11-2018 02:55:00 9.4 C 8.68 g/m*3 9.4 C 0 km/h
37 11-11-2018 03:00:00 9.3 C 8.63 g/m*3 9.3 C 1.6 km/h
38 11-11-2018 03:05:00 9.3 C 8.72 g/m*3 9.3 C 0 km/h
39 11-11-2018 03:10:00 9.3 C 8.72 g/m*3 9.3 C 0 km/h
40 11-11-2018 03:15:00 9.3 C 8.72 g/m*3 9.3 C 0 km/h
41 11-11-2018 03:20:00 9.2 C 8.66 g/m*3 9.2 C 0 km/h
42 11-11-2018 03:25:00 9.2 C 8.66 g/m*3 9.2 C 0 km/h
43 11-11-2018 03:30:00 9.2 C 8.66 g/m*3 9.2 C 0 km/h
44 11-11-2018 03:35:00 9.2 C 8.66 g/m*3 9.2 C 0 km/h
45 11-11-2018 03:40:00 9.3 C 8.72 g/m*3 9.3 C 0 km/h
46 11-11-2018 03:45:00 9.3 C 8.72 g/m*3 9.3 C 0 km/h
47 11-11-2018 03:50:00 9.4 C 8.77 g/m*3 9.4 C 1.6 km/h
48 11-11-2018 03:55:00 9.6 C 8.89 g/m*3 9.6 C 0 km/h
49 11-11-2018 04:00:00 9.7 C 8.94 g/m*3 9.7 C 0 km/h
50 11-11-2018 04:05:00 9.8 C 9 g/m*3 9.8 C 0 km/h
Sensor: Nr:Datum:Temp:Abs-Feuchte:Windchill:Wind:
Aussen-T/F 51 11-11-2018 04:10:00 9.9 C 9.06 g/m*3 9.9 C 0 km/h
52 11-11-2018 04:15:00 9.8 C 9 g/m*3 9.8 C 0 km/h
53 11-11-2018 04:20:00 9.8 C 9 g/m*3 9.8 C 0 km/h
54 11-11-2018 04:25:00 9.8 C 9 g/m*3 9.8 C 0 km/h
55 11-11-2018 04:30:00 9.8 C 9 g/m*3 9.8 C 0 km/h
56 11-11-2018 04:35:00 9.8 C 9 g/m*3 9.8 C 0 km/h
57 11-11-2018 04:40:00 9.8 C 9 g/m*3 9.8 C 0 km/h
58 11-11-2018 04:45:00 9.8 C 9 g/m*3 9.8 C 0 km/h
59 11-11-2018 04:50:00 9.8 C 9 g/m*3 9.8 C 0 km/h
60 11-11-2018 04:55:00 9.8 C 9 g/m*3 9.8 C 0 km/h
61 11-11-2018 05:00:00 9.9 C 9.06 g/m*3 9.9 C 0 km/h
62 11-11-2018 05:05:00 9.9 C 9.06 g/m*3 9.9 C 0 km/h
63 11-11-2018 05:10:00 9.9 C 9.06 g/m*3 9.9 C 0 km/h
64 11-11-2018 05:15:00 9.9 C 9.06 g/m*3 9.9 C 0 km/h
65 11-11-2018 05:20:00 9.9 C 9.06 g/m*3 9.9 C 0 km/h
66 11-11-2018 05:25:00 9.9 C 9.06 g/m*3 9.9 C 0 km/h
67 11-11-2018 05:30:00 9.9 C 9.06 g/m*3 9.9 C 0 km/h
68 11-11-2018 05:35:00 9.9 C 9.06 g/m*3 9.9 C 0 km/h
69 11-11-2018 05:40:00 9.9 C 9.06 g/m*3 9.9 C 0 km/h
70 11-11-2018 05:45:00 10 C 9.11 g/m*3 10 C 0 km/h
71 11-11-2018 05:50:00 10 C 9.11 g/m*3 10 C 0 km/h
72 11-11-2018 05:55:00 10.1 C 9.17 g/m*3 10.1 C 0 km/h
73 11-11-2018 06:00:00 10.1 C 9.17 g/m*3 10.1 C 0 km/h
74 11-11-2018 06:05:00 10.2 C 9.33 g/m*3 10.2 C 0 km/h
75 11-11-2018 06:10:00 10.2 C 9.33 g/m*3 10.2 C 0 km/h
Sensor: Nr:Datum:Temp:Abs-Feuchte:Windchill:Wind:
Aussen-T/F 76 11-11-2018 06:15:00 10.3 C 9.39 g/m*3 10.3 C 0 km/h
77 11-11-2018 06:20:00 10.3 C 9.29 g/m*3 10.3 C 0 km/h
78 11-11-2018 06:25:00 10.3 C 9.29 g/m*3 10.3 C 0 km/h
79 11-11-2018 06:30:00 10.3 C 9.29 g/m*3 10.3 C 0 km/h
80 11-11-2018 06:35:00 10.2 C 9.23 g/m*3 10.2 C 0 km/h
81 11-11-2018 06:40:00 10.2 C 9.23 g/m*3 10.2 C 0 km/h
82 11-11-2018 06:45:00 10.2 C 9.23 g/m*3 10.2 C 0 km/h
83 11-11-2018 06:50:00 10.2 C 9.23 g/m*3 10.2 C 0 km/h
84 11-11-2018 06:55:00 10.2 C 9.23 g/m*3 10.2 C 0 km/h
85 11-11-2018 07:00:00 10.3 C 9.29 g/m*3 10.3 C 0 km/h
86 11-11-2018 07:05:00 10.3 C 9.29 g/m*3 10.3 C 0 km/h
87 11-11-2018 07:10:00 10.3 C 9.29 g/m*3 10.3 C 3.2 km/h
88 11-11-2018 07:15:00 10.3 C 9.29 g/m*3 10.3 C 0 km/h
89 11-11-2018 07:20:00 10.3 C 9.29 g/m*3 10.3 C 0 km/h
90 11-11-2018 07:25:00 10.2 C 9.23 g/m*3 10.2 C 1.6 km/h
91 11-11-2018 07:30:00 10.2 C 9.23 g/m*3 10.2 C 1.6 km/h
92 11-11-2018 07:35:00 10.1 C 9.17 g/m*3 10.1 C 0 km/h
93 11-11-2018 07:40:00 10 C 9.11 g/m*3 10 C 0 km/h
94 11-11-2018 07:45:00 9.9 C 9.06 g/m*3 9.9 C 1.6 km/h
95 11-11-2018 07:50:00 9.9 C 9.06 g/m*3 9.9 C 3.2 km/h
96 11-11-2018 07:55:00 9.9 C 9.06 g/m*3 9.9 C 0 km/h
97 11-11-2018 08:00:00 9.8 C 9 g/m*3 9.8 C 4.8 km/h
98 11-11-2018 08:05:00 9.8 C 9 g/m*3 9.8 C 1.6 km/h
99 11-11-2018 08:10:00 9.8 C 9 g/m*3 9.8 C 0 km/h
100 11-11-2018 08:15:00 9.8 C 9 g/m*3 9.8 C 0 km/h
Sensor: Nr:Datum:Temp:Abs-Feuchte:Windchill:Wind:
Aussen-T/F 101 11-11-2018 08:20:00 9.8 C 9 g/m*3 9.8 C 1.6 km/h
102 11-11-2018 08:25:00 9.9 C 9.06 g/m*3 9.9 C 0 km/h
103 11-11-2018 08:30:00 10.1 C 9.17 g/m*3 10.1 C 1.6 km/h
104 11-11-2018 08:35:00 10.2 C 9.33 g/m*3 10.2 C 1.6 km/h
105 11-11-2018 08:40:00 10.3 C 9.39 g/m*3 10.3 C 3.2 km/h
106 11-11-2018 08:45:00 10.4 C 9.35 g/m*3 10.4 C 1.6 km/h
107 11-11-2018 08:50:00 10.5 C 9.5 g/m*3 10.5 C 0 km/h
108 11-11-2018 08:55:00 10.6 C 9.57 g/m*3 10.6 C 3.2 km/h
109 11-11-2018 09:00:00 10.7 C 9.63 g/m*3 10.7 C 0 km/h
110 11-11-2018 09:05:00 10.8 C 9.69 g/m*3 10.8 C 3.2 km/h
111 11-11-2018 09:10:00 10.8 C 9.59 g/m*3 10.8 C 1.6 km/h
112 11-11-2018 09:15:00 10.9 C 9.75 g/m*3 10.9 C 1.6 km/h
113 11-11-2018 09:20:00 10.9 C 9.65 g/m*3 10.9 C 3.2 km/h
114 11-11-2018 09:25:00 10.9 C 9.65 g/m*3 10.9 C 4.8 km/h
115 11-11-2018 09:30:00 10.9 C 9.65 g/m*3 10.41 C 6.4 km/h
116 11-11-2018 09:35:00 10.9 C 9.65 g/m*3 10.9 C 1.6 km/h
117 11-11-2018 09:40:00 10.9 C 9.55 g/m*3 10.9 C 1.6 km/h
118 11-11-2018 09:45:00 10.8 C 9.49 g/m*3 10.8 C 1.6 km/h
119 11-11-2018 09:50:00 10.8 C 9.49 g/m*3 10.8 C 4.8 km/h
120 11-11-2018 09:55:00 10.9 C 9.55 g/m*3 10.9 C 0 km/h
121 11-11-2018 10:00:00 11.1 C 9.57 g/m*3 11.1 C 6.4 km/h
122 11-11-2018 10:05:00 11.3 C 9.59 g/m*3 11.3 C 4.8 km/h
123 11-11-2018 10:10:00 11.4 C 9.55 g/m*3 11.4 C 6.4 km/h
124 11-11-2018 10:15:00 11.7 C 9.73 g/m*3 11.7 C 1.6 km/h
125 11-11-2018 10:20:00 11.9 C 9.85 g/m*3 11.9 C 1.6 km/h
Sensor: Nr:Datum:Temp:Abs-Feuchte:Windchill:Wind:
Aussen-T/F 126 11-11-2018 10:25:00 12.1 C 9.87 g/m*3 12.1 C 4.8 km/h
127 11-11-2018 10:30:00 12.3 C 9.99 g/m*3 12.3 C 3.2 km/h
128 11-11-2018 10:35:00 12.4 C 9.94 g/m*3 12.4 C 6.4 km/h
129 11-11-2018 10:40:00 12.6 C 10.07 g/m*3 12.6 C 1.6 km/h
130 11-11-2018 10:45:00 12.7 C 9.91 g/m*3 12.7 C 9.7 km/h
131 11-11-2018 10:50:00 12.8 C 9.97 g/m*3 12.8 C 3.2 km/h
132 11-11-2018 10:55:00 12.9 C 9.92 g/m*3 12.9 C 4.8 km/h
133 11-11-2018 11:00:00 13.1 C 10.04 g/m*3 13.1 C 8.1 km/h
134 11-11-2018 11:05:00 13.2 C 9.87 g/m*3 13.2 C 8.1 km/h
135 11-11-2018 11:10:00 13.3 C 9.94 g/m*3 13.3 C 3.2 km/h
136 11-11-2018 11:15:00 13.4 C 9.88 g/m*3 13.4 C 12.9 km/h
137 11-11-2018 11:20:00 13.4 C 9.88 g/m*3 13.4 C 11.3 km/h
138 11-11-2018 11:25:00 13.5 C 9.83 g/m*3 13.5 C 9.7 km/h
139 11-11-2018 11:30:00 13.6 C 10 g/m*3 13.6 C 4.8 km/h
140 11-11-2018 11:35:00 13.6 C 9.89 g/m*3 13.6 C 1.6 km/h
141 11-11-2018 11:40:00 13.7 C 9.83 g/m*3 13.7 C 3.2 km/h
142 11-11-2018 11:45:00 13.8 C 9.89 g/m*3 13.8 C 9.7 km/h
143 11-11-2018 11:50:00 13.9 C 9.95 g/m*3 13.9 C 6.4 km/h
144 11-11-2018 11:55:00 14.1 C 9.95 g/m*3 14.1 C 8.1 km/h
145 11-11-2018 12:00:00 14.1 C 9.95 g/m*3 14.1 C 12.9 km/h
146 11-11-2018 12:05:00 14.2 C 10.14 g/m*3 14.2 C 1.6 km/h
147 11-11-2018 12:10:00 14.1 C 9.83 g/m*3 14.1 C 8.1 km/h
148 11-11-2018 12:15:00 14.2 C 9.89 g/m*3 14.2 C 3.2 km/h
149 11-11-2018 12:20:00 14.3 C 9.95 g/m*3 14.3 C 3.2 km/h
150 11-11-2018 12:25:00 14.3 C 9.95 g/m*3 14.3 C 1.6 km/h
Sensor: Nr:Datum:Temp:Abs-Feuchte:Windchill:Wind:
Aussen-T/F 151 11-11-2018 12:30:00 14.4 C 10.14 g/m*3 14.4 C 1.6 km/h
152 11-11-2018 12:35:00 14.4 C 10.01 g/m*3 14.4 C 6.4 km/h
153 11-11-2018 12:40:00 14.4 C 10.26 g/m*3 14.4 C 8.1 km/h
154 11-11-2018 12:45:00 14.5 C 9.95 g/m*3 14.5 C 12.9 km/h
155 11-11-2018 12:50:00 14.7 C 10.2 g/m*3 14.7 C 8.1 km/h
156 11-11-2018 12:55:00 14.8 C 10.13 g/m*3 14.8 C 4.8 km/h
157 11-11-2018 13:00:00 14.9 C 10.07 g/m*3 14.9 C 11.3 km/h
158 11-11-2018 13:05:00 15.1 C 10.19 g/m*3 15.1 C 9.7 km/h
159 11-11-2018 13:10:00 15.2 C 10.25 g/m*3 15.2 C 8.1 km/h
160 11-11-2018 13:15:00 15.3 C 10.19 g/m*3 15.3 C 9.7 km/h
161 11-11-2018 13:20:00 15.3 C 10.06 g/m*3 15.3 C 8.1 km/h
162 11-11-2018 13:25:00 15.4 C 10.12 g/m*3 15.4 C 8.1 km/h
163 11-11-2018 13:30:00 15.4 C 9.99 g/m*3 15.4 C 12.9 km/h
164 11-11-2018 13:35:00 15.5 C 10.05 g/m*3 15.5 C 16.1 km/h
165 11-11-2018 13:40:00 15.5 C 9.91 g/m*3 15.5 C 8.1 km/h
166 11-11-2018 13:45:00 15.6 C 9.97 g/m*3 15.6 C 6.4 km/h
167 11-11-2018 13:50:00 15.6 C 10.24 g/m*3 15.6 C 0 km/h
168 11-11-2018 13:55:00 15.6 C 9.97 g/m*3 15.6 C 12.9 km/h
169 11-11-2018 14:00:00 15.5 C 9.91 g/m*3 15.5 C 6.4 km/h
170 11-11-2018 14:05:00 15.4 C 9.85 g/m*3 15.4 C 8.1 km/h
171 11-11-2018 14:10:00 15.4 C 9.85 g/m*3 15.4 C 12.9 km/h
172 11-11-2018 14:15:00 15.3 C 9.92 g/m*3 15.3 C 11.3 km/h
173 11-11-2018 14:20:00 15.2 C 9.86 g/m*3 15.2 C 11.3 km/h
174 11-11-2018 14:25:00 15.2 C 9.73 g/m*3 15.2 C 9.7 km/h
175 11-11-2018 14:30:00 15.2 C 9.86 g/m*3 15.2 C 1.6 km/h
Sensor: Nr:Datum:Temp:Abs-Feuchte:Windchill:Wind:
Aussen-T/F 176 11-11-2018 14:35:00 15.2 C 9.73 g/m*3 15.2 C 12.9 km/h
177 11-11-2018 14:40:00 15.2 C 9.73 g/m*3 15.2 C 3.2 km/h
178 11-11-2018 14:45:00 15.2 C 9.99 g/m*3 15.2 C 4.8 km/h
179 11-11-2018 14:50:00 15.2 C 10.25 g/m*3 15.2 C 0 km/h
180 11-11-2018 14:55:00 15.1 C 9.93 g/m*3 15.1 C 9.7 km/h
181 11-11-2018 15:00:00 15.1 C 9.8 g/m*3 15.1 C 11.3 km/h
182 11-11-2018 15:05:00 15.2 C 9.86 g/m*3 15.2 C 8.1 km/h
183 11-11-2018 15:10:00 15.3 C 9.79 g/m*3 15.3 C 6.4 km/h
184 11-11-2018 15:15:00 15.3 C 9.92 g/m*3 15.3 C 4.8 km/h
185 11-11-2018 15:20:00 15.3 C 9.92 g/m*3 15.3 C 3.2 km/h
186 11-11-2018 15:25:00 15.3 C 9.79 g/m*3 15.3 C 3.2 km/h
187 11-11-2018 15:30:00 15.3 C 10.06 g/m*3 15.3 C 0 km/h
188 11-11-2018 15:35:00 15.3 C 10.19 g/m*3 15.3 C 0 km/h
189 11-11-2018 15:40:00 15.3 C 10.45 g/m*3 15.3 C 0 km/h
190 11-11-2018 15:45:00 15.1 C 10.32 g/m*3 15.1 C 0 km/h
191 11-11-2018 15:50:00 15 C 10.13 g/m*3 15 C 0 km/h
192 11-11-2018 15:55:00 15 C 10.13 g/m*3 15 C 4.8 km/h
193 11-11-2018 16:00:00 15 C 10.39 g/m*3 15 C 0 km/h
194 11-11-2018 16:05:00 14.9 C 10.2 g/m*3 14.9 C 4.8 km/h
195 11-11-2018 16:10:00 14.8 C 10.13 g/m*3 14.8 C 4.8 km/h
196 11-11-2018 16:15:00 14.8 C 10.26 g/m*3 14.8 C 0 km/h
197 11-11-2018 16:20:00 14.7 C 10.2 g/m*3 14.7 C 0 km/h
198 11-11-2018 16:25:00 14.6 C 10.26 g/m*3 14.6 C 0 km/h
199 11-11-2018 16:30:00 14.4 C 10.26 g/m*3 14.4 C 0 km/h
200 11-11-2018 16:35:00 14.2 C 10.01 g/m*3 14.2 C 1.6 km/h
Sensor: Nr:Datum:Temp:Abs-Feuchte:Windchill:Wind:
Aussen-T/F 201 11-11-2018 16:40:00 14.2 C 10.14 g/m*3 14.2 C 0 km/h
202 11-11-2018 16:45:00 14.1 C 10.19 g/m*3 14.1 C 1.6 km/h
203 11-11-2018 16:50:00 14 C 10.25 g/m*3 14 C 0 km/h
204 11-11-2018 16:55:00 13.9 C 10.19 g/m*3 13.9 C 0 km/h
205 11-11-2018 17:00:00 13.8 C 10.25 g/m*3 13.8 C 0 km/h
206 11-11-2018 17:05:00 13.7 C 10.18 g/m*3 13.7 C 0 km/h
207 11-11-2018 17:10:00 13.6 C 10.24 g/m*3 13.6 C 0 km/h
208 11-11-2018 17:15:00 13.5 C 10.18 g/m*3 13.5 C 1.6 km/h
209 11-11-2018 17:20:00 13.4 C 10.11 g/m*3 13.4 C 0 km/h
210 11-11-2018 17:25:00 13.3 C 10.17 g/m*3 13.3 C 0 km/h
211 11-11-2018 17:30:00 13.3 C 10.17 g/m*3 13.3 C 1.6 km/h
212 11-11-2018 17:35:00 13.2 C 10.1 g/m*3 13.2 C 1.6 km/h
213 11-11-2018 17:40:00 13.2 C 10.1 g/m*3 13.2 C 1.6 km/h
214 11-11-2018 17:45:00 13.2 C 10.1 g/m*3 13.2 C 1.6 km/h
215 11-11-2018 17:50:00 13.1 C 10.04 g/m*3 13.1 C 1.6 km/h
216 11-11-2018 17:55:00 13 C 9.98 g/m*3 13 C 3.2 km/h
217 11-11-2018 18:00:00 12.9 C 9.92 g/m*3 12.9 C 0 km/h
218 11-11-2018 18:05:00 12.9 C 9.92 g/m*3 12.9 C 1.6 km/h
219 11-11-2018 18:10:00 12.9 C 9.92 g/m*3 12.9 C 0 km/h
220 11-11-2018 18:15:00 12.9 C 9.92 g/m*3 12.9 C 0 km/h
221 11-11-2018 18:20:00 12.8 C 9.86 g/m*3 12.8 C 1.6 km/h
222 11-11-2018 18:25:00 12.8 C 9.86 g/m*3 12.8 C 1.6 km/h
223 11-11-2018 18:30:00 12.7 C 9.8 g/m*3 12.7 C 1.6 km/h
224 11-11-2018 18:35:00 12.7 C 9.8 g/m*3 12.7 C 0 km/h
225 11-11-2018 18:40:00 12.7 C 9.91 g/m*3 12.7 C 1.6 km/h
Sensor: Nr:Datum:Temp:Abs-Feuchte:Windchill:Wind:
Aussen-T/F 226 11-11-2018 18:45:00 12.7 C 9.91 g/m*3 12.7 C 0 km/h
227 11-11-2018 18:50:00 12.6 C 9.85 g/m*3 12.6 C 0 km/h
228 11-11-2018 18:55:00 12.6 C 9.85 g/m*3 12.6 C 0 km/h
229 11-11-2018 19:00:00 12.6 C 9.85 g/m*3 12.6 C 1.6 km/h
230 11-11-2018 19:05:00 12.5 C 9.78 g/m*3 12.5 C 0 km/h
231 11-11-2018 19:10:00 12.5 C 9.78 g/m*3 12.5 C 0 km/h
232 11-11-2018 19:15:00 12.4 C 9.83 g/m*3 12.4 C 0 km/h
233 11-11-2018 19:20:00 12.4 C 9.83 g/m*3 12.4 C 1.6 km/h
234 11-11-2018 19:25:00 12.4 C 9.83 g/m*3 12.4 C 0 km/h
235 11-11-2018 19:30:00 12.4 C 9.83 g/m*3 12.4 C 1.6 km/h
236 11-11-2018 19:35:00 12.4 C 9.83 g/m*3 12.4 C 0 km/h
237 11-11-2018 19:40:00 12.4 C 9.83 g/m*3 12.4 C 1.6 km/h
238 11-11-2018 19:45:00 12.4 C 9.83 g/m*3 12.4 C 0 km/h
239 11-11-2018 19:50:00 12.4 C 9.83 g/m*3 12.4 C 0 km/h
240 11-11-2018 19:55:00 12.4 C 9.94 g/m*3 12.4 C 0 km/h
241 11-11-2018 20:00:00 12.4 C 9.94 g/m*3 12.4 C 0 km/h
242 11-11-2018 20:05:00 12.5 C 10 g/m*3 12.5 C 0 km/h
243 11-11-2018 20:10:00 12.5 C 10 g/m*3 12.5 C 0 km/h
244 11-11-2018 20:15:00 12.6 C 9.96 g/m*3 12.6 C 8.1 km/h
245 11-11-2018 20:20:00 12.7 C 10.02 g/m*3 12.7 C 1.6 km/h
246 11-11-2018 20:25:00 12.8 C 10.08 g/m*3 12.8 C 6.4 km/h
247 11-11-2018 20:30:00 12.8 C 10.08 g/m*3 12.8 C 6.4 km/h
248 11-11-2018 20:35:00 12.9 C 10.14 g/m*3 12.9 C 3.2 km/h
249 11-11-2018 20:40:00 12.8 C 10.08 g/m*3 12.8 C 6.4 km/h
250 11-11-2018 20:45:00 12.8 C 10.08 g/m*3 12.8 C 3.2 km/h
Sensor: Nr:Datum:Temp:Abs-Feuchte:Windchill:Wind:
Aussen-T/F 251 11-11-2018 20:50:00 12.7 C 10.02 g/m*3 12.7 C 4.8 km/h
252 11-11-2018 20:55:00 12.6 C 10.07 g/m*3 12.6 C 4.8 km/h
253 11-11-2018 21:00:00 12.5 C 10 g/m*3 12.5 C 0 km/h
254 11-11-2018 21:05:00 12.4 C 9.94 g/m*3 12.4 C 0 km/h
255 11-11-2018 21:10:00 12.3 C 9.99 g/m*3 12.3 C 0 km/h
256 11-11-2018 21:15:00 12.3 C 9.99 g/m*3 12.3 C 0 km/h
257 11-11-2018 21:20:00 12.2 C 9.93 g/m*3 12.2 C 1.6 km/h
258 11-11-2018 21:25:00 12.2 C 9.93 g/m*3 12.2 C 1.6 km/h
259 11-11-2018 21:30:00 12.1 C 9.87 g/m*3 12.1 C 1.6 km/h
260 11-11-2018 21:35:00 12 C 9.8 g/m*3 12 C 3.2 km/h
261 11-11-2018 21:40:00 11.9 C 9.74 g/m*3 11.9 C 0 km/h
262 11-11-2018 21:45:00 11.9 C 9.85 g/m*3 11.9 C 0 km/h
263 11-11-2018 21:50:00 11.8 C 9.79 g/m*3 11.8 C 0 km/h
264 11-11-2018 21:55:00 11.8 C 9.79 g/m*3 11.8 C 0 km/h
265 11-11-2018 22:00:00 11.8 C 9.79 g/m*3 11.8 C 0 km/h
266 11-11-2018 22:05:00 11.8 C 9.79 g/m*3 11.8 C 0 km/h
267 11-11-2018 22:10:00 11.7 C 9.83 g/m*3 11.7 C 0 km/h
268 11-11-2018 22:15:00 11.7 C 9.83 g/m*3 11.7 C 0 km/h
269 11-11-2018 22:20:00 11.7 C 9.83 g/m*3 11.7 C 0 km/h
270 11-11-2018 22:25:00 11.7 C 9.83 g/m*3 11.7 C 0 km/h
271 11-11-2018 22:30:00 11.6 C 9.77 g/m*3 11.6 C 0 km/h
272 11-11-2018 22:35:00 11.6 C 9.77 g/m*3 11.6 C 3.2 km/h
273 11-11-2018 22:40:00 11.6 C 9.77 g/m*3 11.6 C 1.6 km/h
274 11-11-2018 22:45:00 11.6 C 9.77 g/m*3 11.6 C 1.6 km/h
275 11-11-2018 22:50:00 11.6 C 9.77 g/m*3 11.6 C 1.6 km/h
Sensor: Nr:Datum:Temp:Abs-Feuchte:Windchill:Wind:
Aussen-T/F 276 11-11-2018 22:55:00 11.6 C 9.77 g/m*3 11.6 C 0 km/h
277 11-11-2018 23:00:00 11.6 C 9.77 g/m*3 11.6 C 0 km/h
278 11-11-2018 23:05:00 11.5 C 9.71 g/m*3 11.5 C 0 km/h
279 11-11-2018 23:10:00 11.5 C 9.71 g/m*3 11.5 C 0 km/h
280 11-11-2018 23:15:00 11.4 C 9.65 g/m*3 11.4 C 0 km/h
281 11-11-2018 23:20:00 11.4 C 9.65 g/m*3 11.4 C 0 km/h
282 11-11-2018 23:25:00 11.4 C 9.65 g/m*3 11.4 C 0 km/h
283 11-11-2018 23:30:00 11.3 C 9.49 g/m*3 11.3 C 0 km/h
284 11-11-2018 23:35:00 11.3 C 9.49 g/m*3 11.3 C 0 km/h
285 11-11-2018 23:40:00 11.2 C 9.43 g/m*3 11.2 C 0 km/h
286 11-11-2018 23:45:00 11.2 C 9.53 g/m*3 11.2 C 0 km/h
287 11-11-2018 23:50:00 11.1 C 9.37 g/m*3 11.1 C 0 km/h
288 11-11-2018 23:55:00 11.1 C 9.47 g/m*3 11.1 C 0 km/h
289 12-11-2018 00:00:00 11.1 C 9.47 g/m*3 11.1 C 0 km/h
290 12-11-2018 00:05:00 11.1 C 9.47 g/m*3 11.1 C 0 km/h
291 12-11-2018 00:10:00 11.2 C 9.53 g/m*3 11.2 C 0 km/h
292 12-11-2018 00:15:00 11.2 C 9.53 g/m*3 11.2 C 0 km/h
293 12-11-2018 00:20:00 11.2 C 9.53 g/m*3 11.2 C 0 km/h
294 12-11-2018 00:25:00 11.2 C 9.53 g/m*3 11.2 C 0 km/h
295 12-11-2018 00:30:00 11.1 C 9.47 g/m*3 11.1 C 0 km/h
296 12-11-2018 00:35:00 11.1 C 9.47 g/m*3 11.1 C 0 km/h
297 12-11-2018 00:40:00 11.1 C 9.47 g/m*3 11.1 C 0 km/h
298 12-11-2018 00:45:00 11 C 9.41 g/m*3 11 C 0 km/h
299 12-11-2018 00:50:00 11.1 C 9.47 g/m*3 11.1 C 0 km/h
300 12-11-2018 00:55:00 11 C 9.51 g/m*3 11 C 0 km/h
Sensor: Nr:Datum:Temp:Abs-Feuchte:Windchill:Wind:
Aussen-T/F 301 12-11-2018 01:00:00 11 C 9.51 g/m*3 11 C 0 km/h
302 12-11-2018 01:05:00 11 C 9.51 g/m*3 11 C 0 km/h
303 12-11-2018 01:10:00 11 C 9.51 g/m*3 11 C 0 km/h
304 12-11-2018 01:15:00 11 C 9.51 g/m*3 11 C 0 km/h
305 12-11-2018 01:20:00 11 C 9.51 g/m*3 11 C 0 km/h
306 12-11-2018 01:25:00 11 C 9.51 g/m*3 11 C 0 km/h
307 12-11-2018 01:30:00 11.1 C 9.57 g/m*3 11.1 C 0 km/h
308 12-11-2018 01:35:00 11 C 9.51 g/m*3 11 C 0 km/h
309 12-11-2018 01:40:00 10.9 C 9.35 g/m*3 10.9 C 0 km/h
310 12-11-2018 01:45:00 10.9 C 9.45 g/m*3 10.9 C 0 km/h
311 12-11-2018 01:50:00 10.9 C 9.45 g/m*3 10.9 C 0 km/h
312 12-11-2018 01:55:00 10.9 C 9.45 g/m*3 10.9 C 0 km/h
313 12-11-2018 02:00:00 10.9 C 9.45 g/m*3 10.9 C 0 km/h
314 12-11-2018 02:05:00 10.9 C 9.45 g/m*3 10.9 C 0 km/h
315 12-11-2018 02:10:00 11 C 9.51 g/m*3 11 C 0 km/h
316 12-11-2018 02:15:00 11.1 C 9.57 g/m*3 11.1 C 0 km/h
317 12-11-2018 02:20:00 11.1 C 9.57 g/m*3 11.1 C 0 km/h
318 12-11-2018 02:25:00 11.1 C 9.57 g/m*3 11.1 C 0 km/h
319 12-11-2018 02:30:00 11.2 C 9.63 g/m*3 11.2 C 0 km/h
320 12-11-2018 02:35:00 11.2 C 9.63 g/m*3 11.2 C 0 km/h
321 12-11-2018 02:40:00 11.2 C 9.63 g/m*3 11.2 C 0 km/h
322 12-11-2018 02:45:00 11.2 C 9.63 g/m*3 11.2 C 0 km/h
323 12-11-2018 02:50:00 11.2 C 9.63 g/m*3 11.2 C 0 km/h
324 12-11-2018 02:55:00 11.2 C 9.63 g/m*3 11.2 C 0 km/h
325 12-11-2018 03:00:00 11.2 C 9.63 g/m*3 11.2 C 0 km/h
Sensor: Nr:Datum:Temp:Abs-Feuchte:Windchill:Wind:
Aussen-T/F 326 12-11-2018 03:05:00 11.1 C 9.57 g/m*3 11.1 C 0 km/h
327 12-11-2018 03:10:00 11.1 C 9.57 g/m*3 11.1 C 0 km/h
328 12-11-2018 03:15:00 11.1 C 9.57 g/m*3 11.1 C 0 km/h
329 12-11-2018 03:20:00 11.1 C 9.57 g/m*3 11.1 C 0 km/h
330 12-11-2018 03:25:00 11.1 C 9.57 g/m*3 11.1 C 0 km/h
331 12-11-2018 03:30:00 11.1 C 9.57 g/m*3 11.1 C 0 km/h
332 12-11-2018 03:35:00 11.1 C 9.57 g/m*3 11.1 C 0 km/h
333 12-11-2018 03:40:00 11.2 C 9.73 g/m*3 11.2 C 0 km/h
334 12-11-2018 03:45:00 11.2 C 9.73 g/m*3 11.2 C 0 km/h
335 12-11-2018 03:50:00 11.2 C 9.73 g/m*3 11.2 C 0 km/h
336 12-11-2018 03:55:00 11.1 C 9.67 g/m*3 11.1 C 0 km/h
337 12-11-2018 04:00:00 11.2 C 9.63 g/m*3 11.2 C 0 km/h
338 12-11-2018 04:05:00 11.2 C 9.63 g/m*3 11.2 C 0 km/h
339 12-11-2018 04:10:00 11.2 C 9.63 g/m*3 11.2 C 0 km/h
340 12-11-2018 04:15:00 11.2 C 9.63 g/m*3 11.2 C 0 km/h
341 12-11-2018 04:20:00 11.2 C 9.63 g/m*3 11.2 C 0 km/h
342 12-11-2018 04:25:00 11.2 C 9.73 g/m*3 11.2 C 0 km/h
343 12-11-2018 04:30:00 11.2 C 9.73 g/m*3 11.2 C 0 km/h
344 12-11-2018 04:35:00 11.2 C 9.73 g/m*3 11.2 C 0 km/h
345 12-11-2018 04:40:00 11.2 C 9.73 g/m*3 11.2 C 0 km/h
346 12-11-2018 04:45:00 11.1 C 9.57 g/m*3 11.1 C 0 km/h
347 12-11-2018 04:50:00 11.1 C 9.57 g/m*3 11.1 C 0 km/h
348 12-11-2018 04:55:00 11.1 C 9.57 g/m*3 11.1 C 0 km/h
349 12-11-2018 05:00:00 11 C 9.51 g/m*3 11 C 0 km/h
350 12-11-2018 05:05:00 10.9 C 9.55 g/m*3 10.9 C 0 km/h
Sensor: Nr:Datum:Temp:Abs-Feuchte:Windchill:Wind:
Aussen-T/F 351 12-11-2018 05:10:00 10.9 C 9.55 g/m*3 10.9 C 0 km/h
352 12-11-2018 05:15:00 10.9 C 9.55 g/m*3 10.9 C 0 km/h
353 12-11-2018 05:20:00 10.9 C 9.55 g/m*3 10.9 C 0 km/h
354 12-11-2018 05:25:00 10.9 C 9.55 g/m*3 10.9 C 0 km/h
355 12-11-2018 05:30:00 10.9 C 9.55 g/m*3 10.9 C 0 km/h
356 12-11-2018 05:35:00 10.9 C 9.55 g/m*3 10.9 C 0 km/h
357 12-11-2018 05:40:00 10.9 C 9.55 g/m*3 10.9 C 0 km/h
358 12-11-2018 05:45:00 10.9 C 9.55 g/m*3 10.9 C 0 km/h
359 12-11-2018 05:50:00 10.9 C 9.55 g/m*3 10.9 C 0 km/h
360 12-11-2018 05:55:00 11 C 9.61 g/m*3 11 C 0 km/h
361 12-11-2018 06:00:00 11 C 9.61 g/m*3 11 C 0 km/h
362 12-11-2018 06:05:00 11 C 9.61 g/m*3 11 C 0 km/h
363 12-11-2018 06:10:00 11 C 9.61 g/m*3 11 C 0 km/h
364 12-11-2018 06:15:00 11 C 9.61 g/m*3 11 C 0 km/h
365 12-11-2018 06:20:00 11 C 9.61 g/m*3 11 C 0 km/h
366 12-11-2018 06:25:00 11 C 9.61 g/m*3 11 C 0 km/h
367 12-11-2018 06:30:00 11 C 9.61 g/m*3 11 C 0 km/h
368 12-11-2018 06:35:00 11 C 9.61 g/m*3 11 C 0 km/h
369 12-11-2018 06:40:00 11 C 9.61 g/m*3 11 C 0 km/h
370 12-11-2018 06:45:00 11 C 9.61 g/m*3 11 C 0 km/h
371 12-11-2018 06:50:00 10.9 C 9.55 g/m*3 10.9 C 0 km/h
372 12-11-2018 06:55:00 10.8 C 9.49 g/m*3 10.8 C 0 km/h
373 12-11-2018 07:00:00 10.8 C 9.39 g/m*3 10.8 C 0 km/h
374 12-11-2018 07:05:00 10.7 C 9.33 g/m*3 10.7 C 0 km/h
375 12-11-2018 07:10:00 10.6 C 9.37 g/m*3 10.6 C 0 km/h
Sensor: Nr:Datum:Temp:Abs-Feuchte:Windchill:Wind:
Aussen-T/F 376 12-11-2018 07:15:00 10.5 C 9.31 g/m*3 10.5 C 0 km/h
377 12-11-2018 07:20:00 10.5 C 9.31 g/m*3 10.5 C 0 km/h
378 12-11-2018 07:25:00 10.4 C 9.25 g/m*3 10.4 C 0 km/h
379 12-11-2018 07:30:00 10.3 C 9.1 g/m*3 10.3 C 0 km/h
380 12-11-2018 07:35:00 10.1 C 8.98 g/m*3 10.1 C 0 km/h
381 12-11-2018 07:40:00 10.1 C 8.98 g/m*3 10.1 C 0 km/h
382 12-11-2018 07:45:00 10.2 C 9.14 g/m*3 10.2 C 0 km/h
383 12-11-2018 07:50:00 10.2 C 9.14 g/m*3 10.2 C 0 km/h
384 12-11-2018 07:55:00 10.2 C 9.14 g/m*3 10.2 C 0 km/h
385 12-11-2018 08:00:00 10.2 C 9.14 g/m*3 10.2 C 0 km/h
386 12-11-2018 08:05:00 10.1 C 9.08 g/m*3 10.1 C 0 km/h
387 12-11-2018 08:10:00 10 C 9.02 g/m*3 10 C 0 km/h
388 12-11-2018 08:15:00 10.1 C 9.08 g/m*3 10.1 C 0 km/h
389 12-11-2018 08:20:00 10.3 C 9.19 g/m*3 10.3 C 0 km/h
390 12-11-2018 08:25:00 10.5 C 9.41 g/m*3 10.5 C 0 km/h
391 12-11-2018 08:30:00 10.6 C 9.47 g/m*3 10.6 C 0 km/h
392 12-11-2018 08:35:00 10.8 C 9.59 g/m*3 10.8 C 0 km/h
393 12-11-2018 08:40:00 10.8 C 9.59 g/m*3 10.8 C 0 km/h
394 12-11-2018 08:45:00 10.8 C 9.59 g/m*3 10.8 C 0 km/h
395 12-11-2018 08:50:00 10.9 C 9.65 g/m*3 10.9 C 0 km/h
396 12-11-2018 08:55:00 11 C 9.71 g/m*3 11 C 0 km/h
397 12-11-2018 09:00:00 11.1 C 9.77 g/m*3 11.1 C 0 km/h
398 12-11-2018 09:05:00 11.3 C 9.89 g/m*3 11.3 C 0 km/h
399 12-11-2018 09:10:00 11.5 C 10.02 g/m*3 11.5 C 0 km/h
400 12-11-2018 09:15:00 11.7 C 10.15 g/m*3 11.7 C 0 km/h
Sensor: Nr:Datum:Temp:Abs-Feuchte:Windchill:Wind:
Aussen-T/F 401 12-11-2018 09:20:00 12 C 10.34 g/m*3 12 C 0 km/h
402 12-11-2018 09:25:00 12.3 C 10.53 g/m*3 12.3 C 0 km/h
403 12-11-2018 09:30:00 12.7 C 10.91 g/m*3 12.7 C 0 km/h
404 12-11-2018 09:35:00 12.9 C 11.05 g/m*3 12.9 C 11.3 km/h
405 12-11-2018 09:40:00 13.2 C 11.14 g/m*3 13.2 C 4.8 km/h
406 12-11-2018 09:45:00 13.4 C 11.28 g/m*3 13.4 C 1.6 km/h
407 12-11-2018 09:50:00 13.6 C 11.3 g/m*3 13.6 C 0 km/h
408 12-11-2018 09:55:00 13.8 C 11.32 g/m*3 13.8 C 4.8 km/h
409 12-11-2018 10:00:00 13.9 C 11.27 g/m*3 13.9 C 1.6 km/h
410 12-11-2018 10:05:00 14.2 C 11.23 g/m*3 14.2 C 4.8 km/h
411 12-11-2018 10:10:00 14.6 C 11.26 g/m*3 14.6 C 3.2 km/h
412 12-11-2018 10:15:00 14.9 C 11.34 g/m*3 14.9 C 3.2 km/h
413 12-11-2018 10:20:00 15.2 C 11.29 g/m*3 15.2 C 3.2 km/h
414 12-11-2018 10:25:00 15.3 C 11.1 g/m*3 15.3 C 3.2 km/h
415 12-11-2018 10:30:00 15.6 C 11.04 g/m*3 15.6 C 3.2 km/h
416 12-11-2018 10:35:00 15.8 C 10.9 g/m*3 15.8 C 6.4 km/h
417 12-11-2018 10:40:00 16.2 C 11.17 g/m*3 16.2 C 8.1 km/h
418 12-11-2018 10:45:00 16.6 C 11.16 g/m*3 16.6 C 8.1 km/h
419 12-11-2018 10:50:00 16.8 C 11.01 g/m*3 16.8 C 4.8 km/h
420 12-11-2018 10:55:00 17 C 11.29 g/m*3 17 C 8.1 km/h
421 12-11-2018 11:00:00 17.1 C 11.06 g/m*3 17.1 C 12.9 km/h
422 12-11-2018 11:05:00 17.3 C 10.9 g/m*3 17.3 C 4.8 km/h
423 12-11-2018 11:10:00 17.4 C 10.97 g/m*3 17.4 C 8.1 km/h
424 12-11-2018 11:15:00 17.5 C 10.88 g/m*3 17.5 C 6.4 km/h
425 12-11-2018 11:20:00 17.6 C 10.95 g/m*3 17.6 C 4.8 km/h
Sensor: Nr:Datum:Temp:Abs-Feuchte:Windchill:Wind:
Aussen-T/F 426 12-11-2018 11:25:00 17.7 C 10.86 g/m*3 17.7 C 3.2 km/h
427 12-11-2018 11:30:00 17.7 C 11.01 g/m*3 17.7 C 1.6 km/h
428 12-11-2018 11:35:00 17.7 C 10.86 g/m*3 17.7 C 6.4 km/h
429 12-11-2018 11:40:00 17.8 C 10.93 g/m*3 17.8 C 3.2 km/h
430 12-11-2018 11:45:00 17.8 C 10.93 g/m*3 17.8 C 4.8 km/h
431 12-11-2018 11:50:00 17.8 C 10.78 g/m*3 17.8 C 3.2 km/h
432 12-11-2018 11:55:00 17.9 C 10.99 g/m*3 17.9 C 6.4 km/h
433 12-11-2018 12:00:00 18 C 11.06 g/m*3 18 C 6.4 km/h
434 12-11-2018 12:05:00 18.1 C 11.12 g/m*3 18.1 C 4.8 km/h
435 12-11-2018 12:10:00 18.1 C 10.82 g/m*3 18.1 C 4.8 km/h
436 12-11-2018 12:15:00 18.2 C 11.04 g/m*3 18.2 C 8.1 km/h
437 12-11-2018 12:20:00 18.2 C 11.04 g/m*3 18.2 C 0 km/h
438 12-11-2018 12:25:00 18.2 C 11.04 g/m*3 18.2 C 3.2 km/h
439 12-11-2018 12:30:00 18.3 C 11.26 g/m*3 18.3 C 1.6 km/h
440 12-11-2018 12:35:00 18.3 C 11.1 g/m*3 18.3 C 1.6 km/h
441 12-11-2018 12:40:00 18.3 C 10.94 g/m*3 18.3 C 4.8 km/h
442 12-11-2018 12:45:00 18.4 C 11.17 g/m*3 18.4 C 3.2 km/h
443 12-11-2018 12:50:00 18.4 C 11.01 g/m*3 18.4 C 6.4 km/h
444 12-11-2018 12:55:00 18.4 C 11.17 g/m*3 18.4 C 4.8 km/h
445 12-11-2018 13:00:00 18.4 C 11.17 g/m*3 18.4 C 3.2 km/h
446 12-11-2018 13:05:00 18.4 C 11.01 g/m*3 18.4 C 6.4 km/h
447 12-11-2018 13:10:00 18.4 C 11.32 g/m*3 18.4 C 0 km/h
448 12-11-2018 13:15:00 18.4 C 11.17 g/m*3 18.4 C 1.6 km/h
449 12-11-2018 13:20:00 18.4 C 11.01 g/m*3 18.4 C 0 km/h
450 12-11-2018 13:25:00 18.4 C 11.32 g/m*3 18.4 C 6.4 km/h
Sensor: Nr:Datum:Temp:Abs-Feuchte:Windchill:Wind:
Aussen-T/F 451 12-11-2018 13:30:00 18.4 C 11.32 g/m*3 18.4 C 0 km/h
452 12-11-2018 13:35:00 18.4 C 11.17 g/m*3 18.4 C 3.2 km/h
453 12-11-2018 13:40:00 18.3 C 11.1 g/m*3 18.3 C 3.2 km/h
454 12-11-2018 13:45:00 18.3 C 11.57 g/m*3 18.3 C 0 km/h
455 12-11-2018 13:50:00 18.2 C 11.81 g/m*3 18.2 C 0 km/h
456 12-11-2018 13:55:00 17.9 C 11.76 g/m*3 17.9 C 0 km/h
457 12-11-2018 14:00:00 17.7 C 11.77 g/m*3 17.7 C 0 km/h
458 12-11-2018 14:05:00 17.6 C 11.7 g/m*3 17.6 C 0 km/h
459 12-11-2018 14:10:00 17.6 C 11.7 g/m*3 17.6 C 0 km/h
460 12-11-2018 14:15:00 17.7 C 11.47 g/m*3 17.7 C 8.1 km/h
461 12-11-2018 14:20:00 17.8 C 11.69 g/m*3 17.8 C 3.2 km/h
462 12-11-2018 14:25:00 18 C 11.98 g/m*3 18 C 1.6 km/h
463 12-11-2018 14:30:00 18.1 C 11.74 g/m*3 18.1 C 1.6 km/h
464 12-11-2018 14:35:00 18.1 C 12.21 g/m*3 18.1 C 0 km/h
465 12-11-2018 14:40:00 18.2 C 12.12 g/m*3 18.2 C 0 km/h
466 12-11-2018 14:45:00 18.2 C 11.97 g/m*3 18.2 C 0 km/h
467 12-11-2018 14:50:00 18.2 C 12.12 g/m*3 18.2 C 0 km/h
468 12-11-2018 14:55:00 18.3 C 12.35 g/m*3 18.3 C 0 km/h
469 12-11-2018 15:00:00 18.3 C 12.04 g/m*3 18.3 C 0 km/h
470 12-11-2018 15:05:00 18.3 C 12.35 g/m*3 18.3 C 1.6 km/h
471 12-11-2018 15:10:00 18.3 C 12.2 g/m*3 18.3 C 0 km/h
472 12-11-2018 15:15:00 18.3 C 12.35 g/m*3 18.3 C 0 km/h
473 12-11-2018 15:20:00 18.3 C 12.2 g/m*3 18.3 C 0 km/h
474 12-11-2018 15:25:00 18.4 C 12.27 g/m*3 18.4 C 4.8 km/h
475 12-11-2018 15:30:00 18.4 C 11.95 g/m*3 18.4 C 4.8 km/h
Sensor: Nr:Datum:Temp:Abs-Feuchte:Windchill:Wind:
Aussen-T/F 476 12-11-2018 15:35:00 18.4 C 12.11 g/m*3 18.4 C 1.6 km/h
477 12-11-2018 15:40:00 18.3 C 11.88 g/m*3 18.3 C 3.2 km/h
478 12-11-2018 15:45:00 18.2 C 11.66 g/m*3 18.2 C 4.8 km/h
479 12-11-2018 15:50:00 18.2 C 11.81 g/m*3 18.2 C 3.2 km/h
480 12-11-2018 15:55:00 18.1 C 11.9 g/m*3 18.1 C 3.2 km/h
481 12-11-2018 16:00:00 18 C 11.67 g/m*3 18 C 11.3 km/h
482 12-11-2018 16:05:00 17.9 C 11.91 g/m*3 17.9 C 8.1 km/h
483 12-11-2018 16:10:00 17.8 C 11.99 g/m*3 17.8 C 4.8 km/h
484 12-11-2018 16:15:00 17.7 C 12.22 g/m*3 17.7 C 11.3 km/h
485 12-11-2018 16:20:00 17.6 C 12.6 g/m*3 17.6 C 3.2 km/h
486 12-11-2018 16:25:00 17.3 C 12.52 g/m*3 17.3 C 3.2 km/h
487 12-11-2018 16:30:00 16.9 C 12.51 g/m*3 16.9 C 4.8 km/h
488 12-11-2018 16:35:00 16.6 C 12.43 g/m*3 16.6 C 3.2 km/h
489 12-11-2018 16:40:00 16.3 C 12.35 g/m*3 16.3 C 0 km/h
490 12-11-2018 16:45:00 16.1 C 12.34 g/m*3 16.1 C 0 km/h
491 12-11-2018 16:50:00 15.8 C 12.25 g/m*3 15.8 C 0 km/h
492 12-11-2018 16:55:00 15.7 C 12.18 g/m*3 15.7 C 0 km/h
493 12-11-2018 17:00:00 15.6 C 12.23 g/m*3 15.6 C 1.6 km/h
494 12-11-2018 17:05:00 15.4 C 12.09 g/m*3 15.4 C 1.6 km/h
495 12-11-2018 17:10:00 15.3 C 12.01 g/m*3 15.3 C 1.6 km/h
496 12-11-2018 17:15:00 15.2 C 12.07 g/m*3 15.2 C 1.6 km/h
497 12-11-2018 17:20:00 15.1 C 12 g/m*3 15.1 C 3.2 km/h
498 12-11-2018 17:25:00 15.1 C 12 g/m*3 15.1 C 4.8 km/h
499 12-11-2018 17:30:00 15 C 11.93 g/m*3 15 C 1.6 km/h
500 12-11-2018 17:35:00 14.9 C 11.85 g/m*3 14.9 C 1.6 km/h
Sensor: Nr:Datum:Temp:Abs-Feuchte:Windchill:Wind:
Aussen-T/F 501 12-11-2018 17:40:00 14.9 C 11.85 g/m*3 14.9 C 1.6 km/h
502 12-11-2018 17:45:00 14.8 C 11.78 g/m*3 14.8 C 1.6 km/h
503 12-11-2018 17:50:00 14.7 C 11.71 g/m*3 14.7 C 0 km/h
504 12-11-2018 17:55:00 14.6 C 11.76 g/m*3 14.6 C 1.6 km/h
505 12-11-2018 18:00:00 14.6 C 11.76 g/m*3 14.6 C 1.6 km/h
506 12-11-2018 18:05:00 14.6 C 11.76 g/m*3 14.6 C 1.6 km/h
507 12-11-2018 18:10:00 14.5 C 11.69 g/m*3 14.5 C 1.6 km/h
508 12-11-2018 18:15:00 14.4 C 11.62 g/m*3 14.4 C 1.6 km/h
509 12-11-2018 18:20:00 14.3 C 11.55 g/m*3 14.3 C 1.6 km/h
510 12-11-2018 18:25:00 14.3 C 11.55 g/m*3 14.3 C 1.6 km/h
511 12-11-2018 18:30:00 14.2 C 11.48 g/m*3 14.2 C 1.6 km/h
512 12-11-2018 18:35:00 14.2 C 11.6 g/m*3 14.2 C 1.6 km/h
513 12-11-2018 18:40:00 14.2 C 11.6 g/m*3 14.2 C 1.6 km/h
514 12-11-2018 18:45:00 14.2 C 11.6 g/m*3 14.2 C 1.6 km/h
515 12-11-2018 18:50:00 14.1 C 11.53 g/m*3 14.1 C 0 km/h
516 12-11-2018 18:55:00 14.1 C 11.53 g/m*3 14.1 C 3.2 km/h
517 12-11-2018 19:00:00 14 C 11.46 g/m*3 14 C 1.6 km/h
518 12-11-2018 19:05:00 13.9 C 11.39 g/m*3 13.9 C 3.2 km/h
519 12-11-2018 19:10:00 13.9 C 11.39 g/m*3 13.9 C 3.2 km/h
520 12-11-2018 19:15:00 13.9 C 11.39 g/m*3 13.9 C 3.2 km/h
521 12-11-2018 19:20:00 13.9 C 11.39 g/m*3 13.9 C 1.6 km/h
522 12-11-2018 19:25:00 13.8 C 11.32 g/m*3 13.8 C 1.6 km/h
523 12-11-2018 19:30:00 13.8 C 11.32 g/m*3 13.8 C 1.6 km/h
524 12-11-2018 19:35:00 13.8 C 11.32 g/m*3 13.8 C 0 km/h
525 12-11-2018 19:40:00 13.8 C 11.32 g/m*3 13.8 C 0 km/h
Sensor: Nr:Datum:Temp:Abs-Feuchte:Windchill:Wind:
Aussen-T/F 526 12-11-2018 19:45:00 13.7 C 11.25 g/m*3 13.7 C 1.6 km/h
527 12-11-2018 19:50:00 13.7 C 11.37 g/m*3 13.7 C 1.6 km/h
528 12-11-2018 19:55:00 13.7 C 11.37 g/m*3 13.7 C 6.4 km/h
529 12-11-2018 20:00:00 13.8 C 11.44 g/m*3 13.8 C 0 km/h
530 12-11-2018 20:05:00 13.8 C 11.44 g/m*3 13.8 C 0 km/h
531 12-11-2018 20:10:00 13.8 C 11.44 g/m*3 13.8 C 4.8 km/h
532 12-11-2018 20:15:00 13.8 C 11.44 g/m*3 13.8 C 3.2 km/h
533 12-11-2018 20:20:00 13.8 C 11.44 g/m*3 13.8 C 3.2 km/h
534 12-11-2018 20:25:00 13.8 C 11.44 g/m*3 13.8 C 0 km/h
535 12-11-2018 20:30:00 13.8 C 11.44 g/m*3 13.8 C 1.6 km/h
536 12-11-2018 20:35:00 13.8 C 11.44 g/m*3 13.8 C 3.2 km/h
537 12-11-2018 20:40:00 13.8 C 11.44 g/m*3 13.8 C 3.2 km/h
538 12-11-2018 20:45:00 13.8 C 11.44 g/m*3 13.8 C 0 km/h
539 12-11-2018 20:50:00 13.8 C 11.44 g/m*3 13.8 C 0 km/h
540 12-11-2018 20:55:00 13.8 C 11.44 g/m*3 13.8 C 1.6 km/h
541 12-11-2018 21:00:00 13.7 C 11.37 g/m*3 13.7 C 3.2 km/h
542 12-11-2018 21:05:00 13.7 C 11.37 g/m*3 13.7 C 1.6 km/h
543 12-11-2018 21:10:00 13.7 C 11.37 g/m*3 13.7 C 4.8 km/h
544 12-11-2018 21:15:00 13.7 C 11.37 g/m*3 13.7 C 0 km/h
545 12-11-2018 21:20:00 13.7 C 11.37 g/m*3 13.7 C 0 km/h
546 12-11-2018 21:25:00 13.7 C 11.37 g/m*3 13.7 C 0 km/h
547 12-11-2018 21:30:00 13.6 C 11.18 g/m*3 13.6 C 6.4 km/h
548 12-11-2018 21:35:00 13.4 C 11.04 g/m*3 13.4 C 4.8 km/h
549 12-11-2018 21:40:00 13.3 C 10.98 g/m*3 13.3 C 1.6 km/h
550 12-11-2018 21:45:00 13.2 C 10.91 g/m*3 13.2 C 6.4 km/h
Sensor: Nr:Datum:Temp:Abs-Feuchte:Windchill:Wind:
Aussen-T/F 551 12-11-2018 21:50:00 12.9 C 10.59 g/m*3 12.9 C 9.7 km/h
552 12-11-2018 21:55:00 12.9 C 10.71 g/m*3 12.9 C 3.2 km/h
553 12-11-2018 22:00:00 12.8 C 10.64 g/m*3 12.8 C 3.2 km/h
554 12-11-2018 22:05:00 12.7 C 10.46 g/m*3 12.7 C 6.4 km/h
555 12-11-2018 22:10:00 12.6 C 10.4 g/m*3 12.6 C 1.6 km/h
556 12-11-2018 22:15:00 12.6 C 10.51 g/m*3 12.6 C 0 km/h
557 12-11-2018 22:20:00 12.6 C 10.51 g/m*3 12.6 C 0 km/h
558 12-11-2018 22:25:00 12.5 C 10.44 g/m*3 12.5 C 0 km/h
559 12-11-2018 22:30:00 12.5 C 10.44 g/m*3 12.5 C 0 km/h
560 12-11-2018 22:35:00 12.4 C 10.38 g/m*3 12.4 C 0 km/h
561 12-11-2018 22:40:00 12.4 C 10.38 g/m*3 12.4 C 0 km/h
562 12-11-2018 22:45:00 12.4 C 10.38 g/m*3 12.4 C 0 km/h
563 12-11-2018 22:50:00 12.4 C 10.38 g/m*3 12.4 C 0 km/h
564 12-11-2018 22:55:00 12.4 C 10.38 g/m*3 12.4 C 0 km/h
565 12-11-2018 23:00:00 12.4 C 10.38 g/m*3 12.4 C 0 km/h
566 12-11-2018 23:05:00 12.4 C 10.38 g/m*3 12.4 C 0 km/h
567 12-11-2018 23:10:00 12.3 C 10.42 g/m*3 12.3 C 0 km/h
568 12-11-2018 23:15:00 12.3 C 10.42 g/m*3 12.3 C 0 km/h
569 12-11-2018 23:20:00 12.3 C 10.42 g/m*3 12.3 C 0 km/h
570 12-11-2018 23:25:00 12.2 C 10.36 g/m*3 12.2 C 1.6 km/h
571 12-11-2018 23:30:00 12.2 C 10.36 g/m*3 12.2 C 1.6 km/h
572 12-11-2018 23:35:00 12.1 C 10.29 g/m*3 12.1 C 0 km/h
573 12-11-2018 23:40:00 12.1 C 10.29 g/m*3 12.1 C 0 km/h
574 12-11-2018 23:45:00 12.1 C 10.29 g/m*3 12.1 C 1.6 km/h
575 12-11-2018 23:50:00 12 C 10.23 g/m*3 12 C 1.6 km/h
Sensor: Nr:Datum:Temp:Abs-Feuchte:Windchill:Wind:
Aussen-T/F 576 12-11-2018 23:55:00 11.9 C 10.17 g/m*3 11.9 C 1.6 km/h

Legende:
   Min
   Max


Maximal/Minimal-Werte vom 17.04.2019 - 19.05.2019

Sensor Min Max Avg
Temp
(Aussen-T/F)
2.2 °C
13-05-2019  06:50:00
26.6 °C
24-04-2019  17:05:00
11.51 °C

Die Daten stammen von einer Davis Vantage Pro 2 Wetter-Station und werden unter Linux mit der Software wview2wettercgi und aufbereitet. Alle Angaben erfolgen ohne Gewähr für ihre Vollständigkeit oder Richtigkeit.
Kontakt: Rainer Krienke krienke@uni-koblenz.de . Meine Webseiten an der Uni Koblenz oder privat.
Version: $Revision: 0.78 $